Aviation Digital Data Service (ADDS)

Output produced by METARs form (0124 UTC 23 July 2017)
found at http://www.aviationweather.gov/adds/metars/
 
TAF KVBG 212201Z 2122/2304 31016KT 9999 FEW003 SCT007 QNH2996INS 
     BECMG 2200/2201 31014KT 8000 BR SCT003 BKN007 QNH2994INS 
     BECMG 2204/2205 33010KT 3200 BR BKN003 OVC005 QNH2995INS 
     BECMG 2206/2207 33009KT 0800 FG OVC002 QNH2997INS 
     BECMG 2214/2215 33009KT 1600 BR BKN002 OVC005 QNH3000INS 
     BECMG 2216/2217 31009KT 4800 BR SCT002 BKN005 QNH3001INS 
     BECMG 2217/2218 31010KT 9999 NSW SCT003 SCT006 QNH2999INS 
     BECMG 2219/2220 31015KT 9999 SCT003 SCT006 QNH2997INS 
     BECMG 2300/2301 33012KT 8000 BR SCT002 BKN005 QNH2993INS TX19/2220Z TN12/2213Z LAST NO AMDS AFT 2200 NEXT 2414
       
KVCT 222330Z 2300/2324 16014G18KT P6SM FEW035 BKN250 
     FM230200 17006KT P6SM SCT020 BKN250 
     FM231200 21006KT P6SM VCSH SCT050 BKN250 
     FM231600 19014G18KT P6SM SCT040 BKN150 
     FM232200 16015G23KT P6SM SCT150
       
KVEL 222339Z 2300/2324 20005KT P6SM FEW250 
     FM230500 29006KT P6SM FEW150 
     FM231500 10004KT P6SM FEW150 
     FM231700 23004KT P6SM FEW150
       
KVGT 222320Z 2300/2324 14006KT P6SM SCT150 
     FM230500 33006KT P6SM SCT150 SCT250 
     FM231000 VRB04KT P6SM SCT150 SCT250 
     FM231700 14008KT P6SM SCT150 SCT250
       
KVIS 222320Z 2300/2324 30007KT P6SM SKC
       
KVLD 222323Z 2300/2324 VRB03KT P6SM SCT250 
     FM231000 00000KT 6SM BR SCT005 
     FM231300 20004KT P6SM FEW025 
     FM231800 20007KT 6SM -TSRA BKN050CB
       
KVNY 222328Z 2300/2324 12008KT P6SM SKC 
     FM230300 VRB03KT P6SM SKC 
     FM232100 15006KT P6SM SKC 
     FM232300 12006KT P6SM SKC
       
TAF KVPS 222300Z 2223/2405 22008KT 9999 SCT030 BKN250 QNH2996INS 
     BECMG 2308/2309 27006KT 9999 SCT020 BKN200 QNH2997INS 
     BECMG 2317/2318 27006KT 9999 VCTS SCT045CB BKN220 QNH2993INS 
     TEMPO 2318/2322 19015G25KT 4800 -TSRA BKN035CB BKN220 
     BECMG 2322/2323 27006KT 9999 NSW SCT025 BKN220 QNH2996INS TX32/2320Z TN26/2311Z
       
KVQQ 222327Z 2300/2324 17004KT P6SM BKN045 OVC090 
     FM230200 22003KT P6SM SCT090 OVC250 
     FM231400 25004KT P6SM VCSH SCT020 SCT150 SCT250 
     FM231600 24008KT P6SM -SHRA SCT030 BKN045 OVC060 
     TEMPO 2317/2321 24015G25KT -TSRA FEW010 SCT020 BKN030CB 
     FM232200 18007KT P6SM VCSH FEW020 SCT030 BKN250
       
KVRB 222334Z 2300/2324 20003KT P6SM BKN150 
     FM231400 20005KT P6SM SCT025 BKN150 
     FM231800 11009KT P6SM VCTS SCT035CB BKN150
       
KVTN 222320Z 2300/2324 VRB02KT P6SM SCT100 SCT250